Time;durP1;ratioP1;P1;durP2;ratioP2;P2;SDS_P1;SDS_P2;PMS_P1;PMS_P2;Temp;Humidity;BMP_temperature;BMP_pressure;BME280_temperature;BME280_humidity;BME280_pressure;Samples;Min_cycle;Max_cycle;Signal;HPM_P1;HPM_P2
2021/03/17 00:00:17;;;;;;;22.63;11.82;;;3.20;82.80;;;;;;5041253;28;20045;-77
2021/03/17 00:02:43;;;;;;;22.67;11.77;;;3.20;82.80;;;;;;5052592;28;20041;-77
2021/03/17 00:05:09;;;;;;;26.77;13.93;;;3.10;82.70;;;;;;5051040;28;20064;-76
2021/03/17 00:07:35;;;;;;;24.70;12.18;;;3.10;82.90;;;;;;5053473;28;20071;-77
2021/03/17 00:10:04;;;;;;;28.60;11.60;;;3.20;82.90;;;;;;5052675;28;20059;-78
2021/03/17 00:12:30;;;;;;;19.77;13.43;;;3.20;82.70;;;;;;5052860;28;20052;-77
2021/03/17 00:14:56;;;;;;;19.98;10.73;;;3.20;82.70;;;;;;5053047;28;20056;-77
2021/03/17 00:17:22;;;;;;;24.45;13.80;;;3.20;82.30;;;;;;5052504;28;20092;-77
2021/03/17 00:19:51;;;;;;;22.15;11.77;;;3.20;83.00;;;;;;5052822;28;20033;-77
2021/03/17 00:22:16;;;;;;;25.75;10.90;;;3.20;82.60;;;;;;5052921;28;20505;-76
2021/03/17 00:24:42;;;;;;;19.10;11.52;;;3.10;82.50;;;;;;5052539;28;20048;-76
2021/03/17 00:27:09;;;;;;;16.80;10.45;;;3.10;82.50;;;;;;5050200;28;20033;-75
2021/03/17 00:29:34;;;;;;;22.88;11.73;;;3.10;82.60;;;;;;5051548;28;20115;-76
2021/03/17 00:32:00;;;;;;;26.27;10.25;;;3.10;82.50;;;;;;5052936;28;20029;-77
2021/03/17 00:34:26;;;;;;;19.98;10.60;;;3.10;82.50;;;;;;5052338;28;20049;-76
2021/03/17 00:36:52;;;;;;;22.48;11.57;;;3.10;82.60;;;;;;5034395;28;20025;-77
2021/03/17 00:39:17;;;;;;;20.27;10.00;;;3.10;82.60;;;;;;5052898;28;20033;-76
2021/03/17 00:41:43;;;;;;;25.85;10.95;;;3.10;82.60;;;;;;5034559;28;20024;-77
2021/03/17 00:44:09;;;;;;;19.55;11.10;;;3.00;82.30;;;;;;5052796;28;20037;-76
2021/03/17 00:46:35;;;;;;;20.08;11.88;;;3.00;82.40;;;;;;5052361;28;20364;-78
2021/03/17 00:49:00;;;;;;;17.88;9.43;;;3.00;82.40;;;;;;5052893;28;20051;-78
2021/03/17 00:51:26;;;;;;;23.88;13.50;;;3.00;82.60;;;;;;5052208;28;20025;-78
2021/03/17 00:53:52;;;;;;;32.53;15.52;;;3.00;82.50;;;;;;5052261;28;20104;-77
2021/03/17 00:56:18;;;;;;;32.47;14.05;;;2.90;82.80;;;;;;5052844;28;20060;-76
2021/03/17 00:58:43;;;;;;;26.48;13.52;;;2.80;83.20;;;;;;5034597;28;20028;-77
2021/03/17 01:01:11;;;;;;;27.67;13.80;;;2.80;84.10;;;;;;5024158;28;20080;-78
2021/03/17 01:03:37;;;;;;;24.48;13.93;;;2.70;83.70;;;;;;5032820;28;20053;-77
2021/03/17 01:06:03;;;;;;;28.02;13.63;;;2.70;84.20;;;;;;5032578;28;20017;-76
2021/03/17 01:08:29;;;;;;;22.00;14.35;;;2.70;84.20;;;;;;5014854;28;20116;-77
2021/03/17 01:10:55;;;;;;;18.92;14.38;;;2.60;84.00;;;;;;5032268;28;20108;-76
2021/03/17 01:13:21;;;;;;;32.30;15.73;;;2.50;84.30;;;;;;5032344;28;20021;-76
2021/03/17 01:15:46;;;;;;;21.35;11.55;;;2.40;84.50;;;;;;5032193;28;20100;-77
2021/03/17 01:18:12;;;;;;;19.42;11.13;;;2.40;85.00;;;;;;5032641;28;20049;-78
2021/03/17 01:20:39;;;;;;;19.42;12.98;;;2.40;84.70;;;;;;5032346;28;20033;-78
2021/03/17 01:23:06;;;;;;;22.40;12.50;;;2.30;84.80;;;;;;5032603;28;20056;-75
2021/03/17 01:25:40;;;;;;;19.70;10.77;;;2.30;84.70;;;;;;5031888;28;20060;-77
2021/03/17 01:28:08;;;;;;;23.90;12.93;;;2.20;84.80;;;;;;5024535;28;20105;-78
2021/03/17 01:30:35;;;;;;;;;;;2.20;85.10;;;;;;5032291;28;20033;-78
2021/03/17 01:33:01;;;;;;;21.88;11.27;;;2.20;85.00;;;;;;5031898;28;19905;-76
2021/03/17 01:35:27;;;;;;;25.02;11.75;;;2.20;85.00;;;;;;5032185;28;20026;-78
2021/03/17 01:37:54;;;;;;;28.25;10.40;;;2.30;85.00;;;;;;5014051;28;20368;-76
2021/03/17 01:40:28;;;;;;;17.23;9.03;;;2.40;85.00;;;;;;5014698;28;20466;-75
2021/03/17 01:42:55;;;;;;;22.20;10.05;;;2.40;84.80;;;;;;5013859;28;20743;-77
2021/03/17 01:45:22;;;;;;;23.42;9.95;;;2.40;84.30;;;;;;5031876;28;20356;-77
2021/03/17 01:47:49;;;;;;;20.70;9.27;;;2.40;84.10;;;;;;5034706;28;20043;-77
2021/03/17 01:50:22;;;;;;;21.20;11.77;;;2.40;83.90;;;;;;5017812;28;20371;-75
2021/03/17 01:52:48;;;;;;;13.85;11.07;;;2.50;83.50;;;;;;5035710;28;20045;-76
2021/03/17 01:55:16;;;;;;;14.98;8.73;;;2.50;83.20;;;;;;5035808;28;20025;-77
2021/03/17 01:57:42;;;;;;;20.20;8.50;;;2.50;83.00;;;;;;5035667;28;20017;-76
2021/03/17 02:00:11;;;;;;;20.33;10.30;;;2.40;82.70;;;;;;5037681;28;20514;-76
2021/03/17 02:02:39;;;;;;;18.20;9.65;;;2.40;82.60;;;;;;5027400;28;20510;-77
2021/03/17 02:05:08;;;;;;;;;;;2.40;82.30;;;;;;5018094;28;20533;-76
2021/03/17 02:07:33;;;;;;;15.65;9.07;;;2.40;82.60;;;;;;5035672;28;19913;-75
2021/03/17 02:09:59;;;;;;;17.80;8.20;;;2.40;82.60;;;;;;5017627;28;20034;-77
2021/03/17 02:12:43;;;;;;;17.30;8.07;;;2.40;82.60;;;;;;5017503;28;20033;-76
2021/03/17 02:15:21;;;;;;;14.93;8.75;;;2.40;82.70;;;;;;5035365;28;20025;-76
2021/03/17 02:17:49;;;;;;;19.23;7.82;;;2.30;82.70;;;;;;5026130;28;20028;-76
2021/03/17 02:20:30;;;;;;;15.20;9.05;;;2.40;82.60;;;;;;5035483;28;20033;-75
2021/03/17 02:23:08;;;;;;;17.58;8.30;;;2.40;82.40;;;;;;5024608;28;20068;-76
2021/03/17 02:26:22;;;;;;;17.23;7.25;;;2.40;81.90;;;;;;5035392;28;20486;-76
2021/03/17 02:29:02;;;;;;;15.50;7.78;;;2.30;81.90;;;;;;4947852;29;20031;-76
2021/03/17 02:32:01;;;;;;;25.20;7.72;;;2.30;81.70;;;;;;4946023;29;20043;-76
2021/03/17 02:34:33;;;;;;;12.63;7.03;;;2.30;81.40;;;;;;5008973;28;20061;-76
2021/03/17 02:37:03;;;;;;;21.02;8.10;;;2.30;81.60;;;;;;5035089;28;20363;-78
2021/03/17 02:39:57;;;;;;;14.40;8.18;;;2.30;81.70;;;;;;5035115;28;20017;-75
2021/03/17 02:42:29;;;;;;;14.93;7.95;;;2.40;81.50;;;;;;5035119;28;20024;-77
2021/03/17 02:45:06;;;;;;;14.27;8.00;;;2.30;81.20;;;;;;5035083;28;20049;-77
2021/03/17 02:48:01;;;;;;;20.50;7.22;;;2.40;81.10;;;;;;5034990;28;20479;-78
2021/03/17 02:50:28;;;;;;;9.20;6.85;;;2.40;81.20;;;;;;4982828;28;20057;-76
2021/03/17 02:52:55;;;;;;;16.77;8.45;;;2.40;81.20;;;;;;5035244;28;20387;-75
2021/03/17 02:55:24;;;;;;;;;;;2.40;81.00;;;;;;5035229;28;20410;-75
2021/03/17 02:57:54;;;;;;;17.15;6.50;;;2.40;81.10;;;;;;5033925;28;19967;-75
2021/03/17 03:00:22;;;;;;;13.90;6.70;;;2.40;81.00;;;;;;5034265;28;20534;-78
2021/03/17 03:02:49;;;;;;;12.73;7.00;;;2.40;81.10;;;;;;5034369;28;20168;-77
2021/03/17 03:05:16;;;;;;;18.17;8.43;;;2.40;81.00;;;;;;5034093;28;20024;-78
2021/03/17 03:07:47;;;;;;;14.75;6.38;;;2.40;80.50;;;;;;5016512;28;20029;-76
2021/03/17 03:10:16;;;;;;;15.40;6.78;;;2.30;80.60;;;;;;5034259;28;20032;-75
2021/03/17 03:12:43;;;;;;;15.88;6.05;;;2.30;80.90;;;;;;5034229;28;20017;-76
2021/03/17 03:15:11;;;;;;;15.82;6.38;;;2.20;80.40;;;;;;5034251;28;20386;-75
2021/03/17 03:17:39;;;;;;;14.38;7.05;;;2.20;80.80;;;;;;5033912;28;20487;-75
2021/03/17 03:20:06;;;;;;;;;;;2.20;80.90;;;;;;5034503;28;20036;-75
2021/03/17 03:22:33;;;;;;;13.38;6.28;;;2.20;80.90;;;;;;5033994;28;20319;-78
2021/03/17 03:25:00;;;;;;;14.07;6.03;;;2.10;80.50;;;;;;5033700;28;20049;-78
2021/03/17 03:27:26;;;;;;;15.15;5.80;;;2.00;80.80;;;;;;5030419;28;20026;-78
2021/03/17 03:29:54;;;;;;;13.90;5.77;;;2.10;81.10;;;;;;5033902;28;20120;-76
2021/03/17 03:32:20;;;;;;;;;;;2.00;81.10;;;;;;5034442;28;20097;-77
2021/03/17 03:34:46;;;;;;;16.27;5.03;;;2.00;81.20;;;;;;5034110;28;19948;-76
2021/03/17 03:37:12;;;;;;;13.07;5.90;;;2.00;81.00;;;;;;5033694;28;20025;-76
2021/03/17 03:39:38;;;;;;;11.20;5.63;;;1.90;81.00;;;;;;5033554;28;20025;-78
2021/03/17 03:42:04;;;;;;;16.20;6.00;;;1.90;81.20;;;;;;5015856;28;20418;-75
2021/03/17 03:44:31;;;;;;;11.20;6.68;;;2.00;81.60;;;;;;5033582;28;20075;-77
2021/03/17 03:46:57;;;;;;;21.05;6.90;;;2.00;81.50;;;;;;5033593;28;20024;-78
2021/03/17 03:49:23;;;;;;;12.23;5.13;;;2.00;81.40;;;;;;5033221;28;20033;-75
2021/03/17 03:52:15;;;;;;;9.73;5.97;;;2.00;81.30;;;;;;5033668;28;20034;-77
2021/03/17 03:54:57;;;;;;;12.52;5.22;;;2.10;81.00;;;;;;5011475;28;20486;-76
2021/03/17 03:57:35;;;;;;;16.33;5.97;;;2.00;80.90;;;;;;5033168;28;20051;-76
2021/03/17 04:00:05;;;;;;;8.57;5.43;;;2.10;80.70;;;;;;5024013;28;20024;-74
2021/03/17 04:02:36;;;;;;;15.35;4.70;;;2.10;80.30;;;;;;5039449;28;20083;-75
2021/03/17 04:05:03;;;;;;;10.93;4.65;;;2.00;80.00;;;;;;5041190;28;20045;-79
2021/03/17 04:07:30;;;;;;;12.68;4.93;;;2.00;79.80;;;;;;5039262;28;20030;-74
2021/03/17 04:10:03;;;;;;;10.00;4.60;;;2.00;79.40;;;;;;5038035;28;20182;-74
2021/03/17 04:12:33;;;;;;;9.57;4.25;;;2.00;79.50;;;;;;5031693;28;20026;-77
2021/03/17 04:14:59;;;;;;;13.35;4.20;;;2.00;78.60;;;;;;5044109;28;20067;-76
2021/03/17 04:17:38;;;;;;;11.20;5.05;;;1.90;77.90;;;;;;5039486;28;20025;-76
2021/03/17 04:20:09;;;;;;;11.50;6.13;;;2.00;78.20;;;;;;5051573;28;20035;-77
2021/03/17 04:22:38;;;;;;;15.18;4.90;;;2.00;78.00;;;;;;5048857;28;20017;-77
2021/03/17 04:25:07;;;;;;;10.38;4.88;;;1.90;77.20;;;;;;5050464;28;20032;-76
2021/03/17 04:27:34;;;;;;;8.15;3.85;;;1.90;77.20;;;;;;5031289;28;20033;-76
2021/03/17 04:30:03;;;;;;;9.57;4.90;;;1.90;76.90;;;;;;5034481;28;20429;-78
2021/03/17 04:32:33;;;;;;;10.43;4.35;;;1.80;76.80;;;;;;5047155;28;20053;-76
2021/03/17 04:34:59;;;;;;;9.75;4.43;;;1.80;76.90;;;;;;5040127;28;20025;-77
2021/03/17 04:37:29;;;;;;;11.10;3.70;;;1.90;76.80;;;;;;5044968;28;20083;-76
2021/03/17 04:39:56;;;;;;;8.57;3.65;;;1.90;76.20;;;;;;5032529;28;20097;-76
2021/03/17 04:42:23;;;;;;;5.88;3.47;;;1.80;75.80;;;;;;5041468;28;20030;-75
2021/03/17 04:44:49;;;;;;;8.43;4.60;;;1.70;75.90;;;;;;5040986;28;20039;-76
2021/03/17 04:47:17;;;;;;;7.95;4.22;;;1.70;75.50;;;;;;5040990;28;20611;-79
2021/03/17 04:49:44;;;;;;;9.00;4.25;;;1.80;75.60;;;;;;5042042;28;20016;-76
2021/03/17 04:52:15;;;;;;;13.65;4.28;;;1.80;75.60;;;;;;5033246;28;20083;-76
2021/03/17 04:54:41;;;;;;;18.17;4.78;;;1.80;75.30;;;;;;5042597;28;20056;-77
2021/03/17 04:57:13;;;;;;;10.55;3.85;;;1.80;75.20;;;;;;5033756;28;20446;-75
2021/03/17 04:59:40;;;;;;;16.00;4.43;;;1.70;75.00;;;;;;5031790;28;20037;-75
2021/03/17 05:02:08;;;;;;;7.00;5.18;;;1.70;74.90;;;;;;5042472;28;20037;-74
2021/03/17 05:04:35;;;;;;;10.05;4.43;;;1.70;75.10;;;;;;5032835;28;20112;-74
2021/03/17 05:07:02;;;;;;;12.07;4.65;;;1.80;74.40;;;;;;5040293;28;20018;-77
2021/03/17 05:09:29;;;;;;;16.75;4.97;;;1.80;74.60;;;;;;5038323;28;20392;-77
2021/03/17 05:11:55;;;;;;;10.00;4.50;;;1.80;74.60;;;;;;5041532;28;20025;-77
2021/03/17 05:14:22;;;;;;;12.77;5.00;;;1.80;74.60;;;;;;5038490;28;20036;-78
2021/03/17 05:16:50;;;;;;;14.13;6.53;;;1.90;74.60;;;;;;5052139;28;20025;-77
2021/03/17 05:19:16;;;;;;;12.60;4.72;;;1.90;74.20;;;;;;5031450;28;20025;-78
2021/03/17 05:21:43;;;;;;;17.98;5.82;;;1.90;73.60;;;;;;5033816;28;20475;-77
2021/03/17 05:24:12;;;;;;;15.27;7.35;;;1.80;73.60;;;;;;5048347;28;20124;-77
2021/03/17 05:26:37;;;;;;;7.70;4.78;;;1.80;73.90;;;;;;5045049;28;20052;-78
2021/03/17 05:29:07;;;;;;;12.32;6.05;;;1.90;74.20;;;;;;5033294;28;20033;-78
2021/03/17 05:31:34;;;;;;;13.55;5.43;;;1.90;73.60;;;;;;5032249;28;20096;-78
2021/03/17 05:34:00;;;;;;;10.93;5.88;;;1.80;72.10;;;;;;5044906;28;20044;-77
2021/03/17 05:36:26;;;;;;;10.55;5.45;;;1.70;73.00;;;;;;5032759;28;20124;-77
2021/03/17 05:38:55;;;;;;;13.90;6.00;;;1.60;73.40;;;;;;5043465;28;20104;-79
2021/03/17 05:41:21;;;;;;;11.27;6.35;;;1.60;73.30;;;;;;5036487;28;20407;-77
2021/03/17 05:43:48;;;;;;;16.27;5.18;;;1.60;73.40;;;;;;5041792;28;20061;-76
2021/03/17 05:46:14;;;;;;;11.52;5.05;;;1.70;73.40;;;;;;5038831;28;20025;-76
2021/03/17 05:48:42;;;;;;;16.43;6.70;;;1.70;73.20;;;;;;5031905;28;20053;-78
2021/03/17 05:51:08;;;;;;;8.25;5.22;;;1.70;73.20;;;;;;5037837;28;20030;-80
2021/03/17 05:53:34;;;;;;;10.20;5.75;;;1.80;73.30;;;;;;5032042;28;20029;-79
2021/03/17 05:56:01;;;;;;;15.13;6.07;;;1.80;73.10;;;;;;5030896;28;20465;-84
2021/03/17 05:58:27;;;;;;;12.77;5.90;;;1.90;72.90;;;;;;5026737;28;20108;-82
2021/03/17 06:00:53;;;;;;;15.48;6.72;;;2.00;72.80;;;;;;5042467;28;20120;-82
2021/03/17 06:03:20;;;;;;;14.88;5.28;;;2.10;73.10;;;;;;5049592;28;20433;-80
2021/03/17 06:05:47;;;;;;;18.30;6.28;;;2.10;72.60;;;;;;5046169;28;20025;-81
2021/03/17 06:08:15;;;;;;;11.75;6.28;;;2.10;72.40;;;;;;5044544;28;20028;-81
2021/03/17 06:10:42;;;;;;;8.55;5.05;;;2.20;72.20;;;;;;5032321;28;20508;-81
2021/03/17 06:13:12;;;;;;;12.30;4.93;;;2.20;72.00;;;;;;5046580;28;20379;-86
2021/03/17 06:15:39;;;;;;;8.23;4.75;;;2.20;71.50;;;;;;5052662;28;20060;-86
2021/03/17 06:18:13;;;;;;;10.98;5.35;;;2.10;70.80;;;;;;5053554;28;20071;-83
2021/03/17 06:20:40;;;;;;;10.32;5.95;;;2.10;71.10;;;;;;5052413;28;20032;-82
2021/03/17 06:23:07;;;;;;;9.98;5.47;;;2.10;71.90;;;;;;5052958;28;20094;-81
2021/03/17 06:25:35;;;;;;;13.48;4.60;;;2.10;71.10;;;;;;5055541;28;20104;-82
2021/03/17 06:28:02;;;;;;;10.07;4.90;;;2.10;70.80;;;;;;5051381;28;20025;-82
2021/03/17 06:30:28;;;;;;;17.40;5.88;;;2.10;70.80;;;;;;5051358;28;20039;-81
2021/03/17 06:32:54;;;;;;;16.70;6.05;;;2.20;71.00;;;;;;5052869;28;20413;-81
2021/03/17 06:35:25;;;;;;;14.13;5.15;;;2.20;70.90;;;;;;5055001;28;20017;-81
2021/03/17 06:37:51;;;;;;;12.65;5.32;;;2.30;70.70;;;;;;5055612;28;20027;-81
2021/03/17 06:40:28;;;;;;;16.73;6.07;;;2.30;70.40;;;;;;5055180;28;20017;-82
2021/03/17 06:43:05;;;;;;;13.47;6.33;;;2.30;70.30;;;;;;5054700;28;20056;-81
2021/03/17 06:45:37;;;;;;;16.83;6.45;;;2.30;70.30;;;;;;5054976;28;20246;-81
2021/03/17 06:48:21;;;;;;;19.50;6.53;;;2.20;69.80;;;;;;5054491;28;20104;-81
2021/03/17 06:51:02;;;;;;;15.68;6.53;;;2.20;70.10;;;;;;5054884;28;20401;-81
2021/03/17 06:53:36;;;;;;;12.65;5.40;;;2.20;70.80;;;;;;5054274;28;20036;-81
2021/03/17 06:56:32;;;;;;;14.93;7.13;;;2.30;70.40;;;;;;5054328;28;20025;-81
2021/03/17 06:58:59;;;;;;;12.85;6.00;;;2.10;70.30;;;;;;5026376;28;20645;-82
2021/03/17 07:01:45;;;;;;;13.75;6.97;;;2.20;70.90;;;;;;5036601;28;20053;-81
2021/03/17 07:04:19;;;;;;;13.77;7.28;;;2.40;71.00;;;;;;5054601;28;20425;-79
2021/03/17 07:06:47;;;;;;;17.00;6.43;;;2.60;70.50;;;;;;5054434;28;20339;-80
2021/03/17 07:09:16;;;;;;;;;;;2.70;69.90;;;;;;5054757;28;20013;-80
2021/03/17 07:11:43;;;;;;;14.63;6.93;;;2.80;70.10;;;;;;5040180;28;20353;-80
2021/03/17 07:14:09;;;;;;;18.67;8.13;;;2.80;69.20;;;;;;5054252;28;20492;-80
2021/03/17 07:16:47;;;;;;;17.92;7.20;;;2.70;69.10;;;;;;5054623;28;20115;-82
2021/03/17 07:19:33;;;;;;;12.43;6.40;;;2.70;69.90;;;;;;5054313;28;20068;-81
2021/03/17 07:22:07;;;;;;;12.38;6.60;;;2.80;71.30;;;;;;5054375;28;20078;-80
2021/03/17 07:24:34;;;;;;;11.23;5.97;;;2.90;69.40;;;;;;5053856;28;20028;-82
2021/03/17 07:27:19;;;;;;;18.08;6.75;;;3.00;69.00;;;;;;5054474;28;20029;-80
2021/03/17 07:29:58;;;;;;;11.40;6.32;;;3.00;68.20;;;;;;5053809;28;20028;-81
2021/03/17 07:32:27;;;;;;;12.10;6.15;;;3.00;68.20;;;;;;5054167;28;20446;-81
2021/03/17 07:34:54;;;;;;;12.90;7.53;;;3.00;68.40;;;;;;5054379;28;20024;-81
2021/03/17 07:37:25;;;;;;;11.38;5.90;;;3.10;68.30;;;;;;5054412;28;20104;-82
2021/03/17 07:39:57;;;;;;;15.60;7.20;;;3.20;68.10;;;;;;5054452;28;20025;-81
2021/03/17 07:42:24;;;;;;;13.65;6.72;;;3.20;67.50;;;;;;5054200;28;20083;-81
2021/03/17 07:44:50;;;;;;;14.73;6.70;;;3.30;67.70;;;;;;5035463;28;20021;-82
2021/03/17 07:47:16;;;;;;;12.38;7.18;;;3.50;67.50;;;;;;5054069;28;20060;-80
2021/03/17 07:49:43;;;;;;;16.75;7.88;;;3.50;66.80;;;;;;5053444;28;20442;-79
2021/03/17 07:52:20;;;;;;;12.48;6.78;;;3.50;66.40;;;;;;5054110;28;20112;-81
2021/03/17 07:54:50;;;;;;;25.30;13.32;;;3.50;66.80;;;;;;5053689;28;20044;-82
2021/03/17 07:57:16;;;;;;;14.85;7.90;;;3.60;66.90;;;;;;5035951;28;20029;-81
2021/03/17 07:59:43;;;;;;;15.25;7.18;;;3.80;66.60;;;;;;5053167;28;20390;-80
2021/03/17 08:02:10;;;;;;;11.85;6.40;;;3.80;66.50;;;;;;5045968;28;20448;-82
2021/03/17 08:04:36;;;;;;;18.88;7.68;;;3.90;66.10;;;;;;5033622;28;20048;-81
2021/03/17 08:07:06;;;;;;;13.48;8.38;;;3.90;65.80;;;;;;5033537;28;20026;-81
2021/03/17 08:09:36;;;;;;;15.68;9.15;;;4.00;65.70;;;;;;5033442;28;20021;-80
2021/03/17 08:12:09;;;;;;;19.08;7.85;;;4.10;65.70;;;;;;5033759;28;20107;-81
2021/03/17 08:14:36;;;;;;;20.70;9.93;;;4.20;65.40;;;;;;5045890;28;20832;-81
2021/03/17 08:17:02;;;;;;;12.63;7.63;;;4.30;65.00;;;;;;5033433;28;20355;-81
2021/03/17 08:19:29;;;;;;;15.63;7.93;;;4.30;65.10;;;;;;5015411;28;20079;-82
2021/03/17 08:21:57;;;;;;;19.88;8.35;;;4.30;65.10;;;;;;5033440;28;20364;-81
2021/03/17 08:24:41;;;;;;;20.58;8.50;;;4.30;64.60;;;;;;5033095;28;20030;-81
2021/03/17 08:27:07;;;;;;;16.25;8.52;;;4.20;63.90;;;;;;5033308;28;20452;-81
2021/03/17 08:29:43;;;;;;;18.13;7.57;;;4.20;64.40;;;;;;5014857;28;20108;-82
2021/03/17 08:32:11;;;;;;;11.70;6.70;;;4.20;64.60;;;;;;5015342;28;20021;-81
2021/03/17 08:34:40;;;;;;;11.10;8.52;;;4.20;64.40;;;;;;5032763;28;20053;-81
2021/03/17 08:37:07;;;;;;;16.83;6.95;;;4.40;64.10;;;;;;5032904;28;20475;-81
2021/03/17 08:39:33;;;;;;;18.93;7.80;;;4.40;63.50;;;;;;5033704;28;20021;-80
2021/03/17 08:42:06;;;;;;;14.23;7.28;;;4.50;63.60;;;;;;5033761;28;20075;-81
2021/03/17 08:44:39;;;;;;;12.05;8.45;;;4.40;62.10;;;;;;5032494;28;20120;-81
2021/03/17 08:47:33;;;;;;;15.80;8.13;;;4.30;63.50;;;;;;5033035;28;20028;-81
2021/03/17 08:50:21;;;;;;;15.88;8.30;;;4.70;63.60;;;;;;5014639;28;20494;-80
2021/03/17 08:52:51;;;;;;;19.77;8.55;;;5.10;62.10;;;;;;5032468;28;20025;-81
2021/03/17 08:55:37;;;;;;;18.02;8.88;;;5.30;62.00;;;;;;5032353;28;20497;-80
2021/03/17 08:58:07;;;;;;;21.48;10.27;;;5.60;61.20;;;;;;5015253;28;20421;-81
2021/03/17 09:00:51;;;;;;;36.40;12.82;;;5.70;59.90;;;;;;5034149;28;20176;-80
2021/03/17 09:03:32;;;;;;;22.63;12.02;;;5.80;59.90;;;;;;5036976;28;20029;-81
2021/03/17 09:06:17;;;;;;;20.73;13.48;;;6.00;59.40;;;;;;5034627;28;20053;-81
2021/03/17 09:08:46;;;;;;;28.65;16.58;;;6.20;58.70;;;;;;5034857;28;20082;-83
2021/03/17 09:11:31;;;;;;;25.90;13.02;;;6.40;58.20;;;;;;5035049;28;20038;-82
2021/03/17 09:14:00;;;;;;;26.80;13.45;;;6.60;57.70;;;;;;5032481;28;20044;-81
2021/03/17 09:16:27;;;;;;;19.20;12.45;;;6.50;56.60;;;;;;5032343;28;20026;-83
2021/03/17 09:19:14;;;;;;;22.02;12.95;;;6.40;56.60;;;;;;5014455;28;20033;-82
2021/03/17 09:21:45;;;;;;;25.33;10.38;;;6.50;56.90;;;;;;5032277;28;20018;-83
2021/03/17 09:24:34;;;;;;;24.17;10.25;;;6.40;56.50;;;;;;5027751;28;20026;-81
2021/03/17 09:27:08;;;;;;;21.00;10.02;;;6.40;56.70;;;;;;5032220;28;20057;-81
2021/03/17 09:29:36;;;;;;;18.88;8.48;;;6.20;56.30;;;;;;5031732;28;20028;-82
2021/03/17 09:32:03;;;;;;;24.48;8.80;;;5.80;56.70;;;;;;5032606;28;20018;-81
2021/03/17 09:34:31;;;;;;;20.42;8.05;;;5.60;57.00;;;;;;5031937;28;20422;-83
2021/03/17 09:37:11;;;;;;;24.58;8.48;;;5.50;57.60;;;;;;5020747;28;20049;-81
2021/03/17 09:39:47;;;;;;;22.05;6.47;;;5.60;57.80;;;;;;5015663;28;20025;-81
2021/03/17 09:42:17;;;;;;;23.48;7.50;;;5.70;57.30;;;;;;5031994;28;20087;-81
2021/03/17 09:44:43;;;;;;;16.55;6.05;;;5.60;57.50;;;;;;5031978;28;20022;-81
2021/03/17 09:47:09;;;;;;;23.33;6.93;;;5.50;57.20;;;;;;5032227;28;20545;-81
2021/03/17 09:49:36;;;;;;;23.40;6.05;;;5.40;57.50;;;;;;5032618;28;20022;-82
2021/03/17 09:52:03;;;;;;;25.40;7.82;;;5.20;57.60;;;;;;5032313;28;20071;-83
2021/03/17 09:54:31;;;;;;;18.45;7.35;;;5.20;57.90;;;;;;5031940;28;20026;-80
2021/03/17 09:57:03;;;;;;;17.60;6.90;;;5.20;57.90;;;;;;5032076;28;20096;-81
2021/03/17 09:59:34;;;;;;;25.10;6.95;;;5.20;58.20;;;;;;5020958;28;20025;-82
2021/03/17 10:02:09;;;;;;;24.75;7.70;;;5.40;57.90;;;;;;5025895;28;20090;-82
2021/03/17 10:04:42;;;;;;;23.20;6.65;;;5.50;57.80;;;;;;5032759;28;20029;-81
2021/03/17 10:07:20;;;;;;;33.35;11.07;;;5.70;57.20;;;;;;5032107;28;20199;-82
2021/03/17 10:09:47;;;;;;;18.77;8.05;;;6.00;57.30;;;;;;5017134;28;22369;-82
2021/03/17 10:12:15;;;;;;;23.95;6.97;;;6.10;56.70;;;;;;5035469;28;20105;-82
2021/03/17 10:14:47;;;;;;;19.55;7.85;;;6.20;57.10;;;;;;5017936;28;20029;-82
2021/03/17 10:17:15;;;;;;;21.67;8.18;;;6.20;56.10;;;;;;5035260;28;20028;-80
2021/03/17 10:19:42;;;;;;;29.17;8.98;;;6.20;56.10;;;;;;5035429;28;20073;-82
2021/03/17 10:22:08;;;;;;;21.13;8.57;;;6.30;56.30;;;;;;5035597;28;20036;-81
2021/03/17 10:24:46;;;;;;;24.85;8.18;;;6.30;55.70;;;;;;5036959;28;20025;-82
2021/03/17 10:27:17;;;;;;;15.20;8.90;;;6.10;56.50;;;;;;5018272;28;20030;-81
2021/03/17 10:29:45;;;;;;;28.30;8.95;;;6.20;57.20;;;;;;5035113;28;20021;-81
2021/03/17 10:32:20;;;;;;;15.13;8.65;;;6.40;57.00;;;;;;5035452;28;20402;-83
2021/03/17 10:34:46;;;;;;;18.13;8.70;;;6.50;56.80;;;;;;5035536;28;20414;-82
2021/03/17 10:37:22;;;;;;;23.25;10.18;;;6.80;56.20;;;;;;5032739;28;20053;-81
2021/03/17 10:39:52;;;;;;;31.17;9.98;;;7.00;55.20;;;;;;5034642;28;20024;-82
2021/03/17 10:42:24;;;;;;;29.63;10.82;;;7.00;55.10;;;;;;5035391;28;20455;-82
2021/03/17 10:45:00;;;;;;;30.55;9.93;;;7.00;54.70;;;;;;5035098;28;20032;-82
2021/03/17 10:47:30;;;;;;;31.52;9.45;;;7.10;54.10;;;;;;5017089;28;20029;-83
2021/03/17 10:49:56;;;;;;;24.15;9.05;;;7.30;54.20;;;;;;5036403;28;20029;-83
2021/03/17 10:52:38;;;;;;;35.22;9.68;;;7.50;53.70;;;;;;5036942;28;20469;-84
2021/03/17 10:55:12;;;;;;;34.88;9.63;;;7.60;53.00;;;;;;5035046;28;20543;-82
2021/03/17 10:57:37;;;;;;;30.65;8.00;;;7.30;51.80;;;;;;5034868;28;20029;-82
2021/03/17 11:00:12;;;;;;;35.33;9.85;;;6.70;52.60;;;;;;5036201;28;20383;-82
2021/03/17 11:02:38;;;;;;;38.30;10.48;;;6.40;53.80;;;;;;5027075;28;20033;-84
2021/03/17 11:05:28;;;;;;;24.42;9.20;;;6.50;54.60;;;;;;5034952;28;20070;-80
2021/03/17 11:08:00;;;;;;;33.35;9.45;;;6.60;54.60;;;;;;5030466;28;20032;-82
2021/03/17 11:10:51;;;;;;;22.27;8.90;;;6.40;54.50;;;;;;5035866;28;20061;-82
2021/03/17 11:13:20;;;;;;;39.83;11.05;;;6.50;54.50;;;;;;5034958;28;20029;-82
2021/03/17 11:15:51;;;;;;;32.80;9.70;;;6.50;54.70;;;;;;5036370;28;20495;-82
2021/03/17 11:18:28;;;;;;;35.03;9.77;;;6.60;54.90;;;;;;5035760;28;20021;-82
2021/03/17 11:21:07;;;;;;;36.30;10.57;;;6.60;54.60;;;;;;5034441;28;20060;-82
2021/03/17 11:23:43;;;;;;;36.33;8.93;;;6.60;54.70;;;;;;5034196;28;20021;-82
2021/03/17 11:26:22;;;;;;;41.10;10.80;;;6.60;54.60;;;;;;5021125;28;20115;-82
2021/03/17 11:29:01;;;;;;;33.63;8.75;;;6.50;54.90;;;;;;5041465;28;20028;-80
2021/03/17 11:31:33;;;;;;;55.10;12.98;;;6.50;54.60;;;;;;5027500;28;20040;-82
2021/03/17 11:33:59;;;;;;;49.45;11.48;;;6.50;54.90;;;;;;5027422;28;20356;-83
2021/03/17 11:36:27;;;;;;;31.45;9.10;;;6.50;55.10;;;;;;5033569;28;20100;-83
2021/03/17 11:38:55;;;;;;;32.95;8.63;;;6.40;54.70;;;;;;5034377;28;20032;-82
2021/03/17 11:41:24;;;;;;;49.60;11.00;;;6.10;54.70;;;;;;5048151;28;20036;-82
2021/03/17 11:43:50;;;;;;;46.78;11.23;;;5.70;55.20;;;;;;5034119;28;20055;-80
2021/03/17 11:46:43;;;;;;;;;;;;;;;;;;;;;
2021/03/17 11:49:13;;;;;;;53.10;11.35;;;5.60;56.30;;;;;;5033942;28;20017;-81
2021/03/17 11:51:39;;;;;;;40.95;11.38;;;5.60;56.80;;;;;;5029640;28;20033;-84
2021/03/17 11:54:05;;;;;;;43.63;10.20;;;5.70;57.10;;;;;;5034468;28;20032;-82
2021/03/17 11:56:30;;;;;;;43.65;10.70;;;5.80;56.30;;;;;;5034424;28;20028;-83
2021/03/17 11:58:56;;;;;;;27.90;9.75;;;5.80;56.30;;;;;;5039402;28;20104;-82
2021/03/17 12:01:22;;;;;;;45.42;11.73;;;5.80;56.00;;;;;;5050943;28;20045;-83
2021/03/17 12:03:48;;;;;;;44.33;10.15;;;5.70;56.10;;;;;;5021918;28;20059;-82
2021/03/17 12:06:15;;;;;;;37.17;10.48;;;5.60;56.30;;;;;;5015087;28;20181;-83
2021/03/17 12:08:41;;;;;;;39.70;11.02;;;5.60;56.70;;;;;;5034873;28;20021;-82
2021/03/17 12:11:06;;;;;;;30.67;9.30;;;5.60;56.80;;;;;;5035179;28;20029;-82
2021/03/17 12:13:32;;;;;;;53.75;11.75;;;5.60;56.20;;;;;;5037761;28;20032;-82
2021/03/17 12:15:58;;;;;;;40.58;9.90;;;5.50;56.90;;;;;;5033445;28;20095;-82
2021/03/17 12:18:25;;;;;;;40.72;10.38;;;5.50;57.20;;;;;;5033669;28;20033;-81
2021/03/17 12:20:53;;;;;;;54.47;11.13;;;5.50;56.50;;;;;;5033242;28;20020;-81
2021/03/17 12:23:19;;;;;;;33.03;10.50;;;5.40;57.10;;;;;;5034546;28;20017;-81
2021/03/17 12:25:46;;;;;;;44.63;11.98;;;5.20;56.80;;;;;;5048209;28;20429;-83
2021/03/17 12:28:12;;;;;;;54.35;9.77;;;5.10;57.80;;;;;;5035129;28;20445;-82
2021/03/17 12:30:41;;;;;;;49.53;11.43;;;5.20;57.80;;;;;;5033253;28;20080;-83
2021/03/17 12:33:07;;;;;;;65.93;12.32;;;5.10;57.70;;;;;;5020855;28;20009;-84
2021/03/17 12:35:34;;;;;;;49.22;9.95;;;5.20;58.00;;;;;;5036206;28;20025;-81
2021/03/17 12:38:00;;;;;;;54.38;12.30;;;5.00;57.40;;;;;;5033235;28;20017;-82
2021/03/17 12:40:29;;;;;;;38.08;9.15;;;4.80;58.10;;;;;;5033341;28;20026;-81
2021/03/17 12:42:56;;;;;;;48.83;11.80;;;4.60;58.30;;;;;;5033033;28;20066;-82
2021/03/17 12:45:25;;;;;;;48.95;11.88;;;4.70;59.10;;;;;;5033258;28;20057;-84
2021/03/17 12:47:52;;;;;;;34.85;10.48;;;4.80;59.20;;;;;;5032815;28;20059;-82
2021/03/17 12:50:23;;;;;;;51.10;11.45;;;4.60;59.00;;;;;;5035386;28;20087;-82
2021/03/17 12:52:49;;;;;;;48.08;10.98;;;4.70;59.50;;;;;;5032503;28;20025;-82
2021/03/17 12:55:15;;;;;;;42.10;11.13;;;4.90;59.50;;;;;;5032759;28;20509;-82
2021/03/17 12:57:42;;;;;;;38.25;9.98;;;5.00;59.40;;;;;;5032515;28;20494;-83
2021/03/17 13:00:13;;;;;;;41.30;9.38;;;5.10;58.90;;;;;;5035097;28;20049;-83
2021/03/17 13:02:39;;;;;;;46.42;9.52;;;5.00;58.80;;;;;;5052769;28;20508;-83